sensor_id;sensor_type;location;lat;lon;timestamp;P1;durP1;ratioP1;P2;durP2;ratioP2
13122;SDS011;6627;50.920;12.050;2022-08-19T00:01:18;65.80;;;41.20;;
13122;SDS011;6627;50.920;12.050;2022-08-19T00:03:47;88.87;;;43.67;;
13122;SDS011;6627;50.920;12.050;2022-08-19T00:06:15;95.87;;;44.00;;
13122;SDS011;6627;50.920;12.050;2022-08-19T00:08:43;86.13;;;43.73;;
13122;SDS011;6627;50.920;12.050;2022-08-19T00:11:10;65.97;;;44.77;;
13122;SDS011;6627;50.920;12.050;2022-08-19T00:13:40;58.77;;;43.70;;
13122;SDS011;6627;50.920;12.050;2022-08-19T00:16:07;67.63;;;45.03;;
13122;SDS011;6627;50.920;12.050;2022-08-19T00:18:35;94.33;;;44.40;;
13122;SDS011;6627;50.920;12.050;2022-08-19T00:21:02;76.83;;;43.30;;
13122;SDS011;6627;50.920;12.050;2022-08-19T00:23:33;102.83;;;43.57;;
13122;SDS011;6627;50.920;12.050;2022-08-19T00:26:02;63.73;;;41.43;;
13122;SDS011;6627;50.920;12.050;2022-08-19T00:28:30;78.50;;;42.30;;
13122;SDS011;6627;50.920;12.050;2022-08-19T00:31:00;86.57;;;42.53;;
13122;SDS011;6627;50.920;12.050;2022-08-19T00:33:28;69.53;;;40.53;;
13122;SDS011;6627;50.920;12.050;2022-08-19T00:35:57;60.93;;;43.07;;
13122;SDS011;6627;50.920;12.050;2022-08-19T00:38:25;66.37;;;43.10;;
13122;SDS011;6627;50.920;12.050;2022-08-19T00:40:53;59.13;;;41.40;;
13122;SDS011;6627;50.920;12.050;2022-08-19T00:43:23;62.50;;;41.40;;
13122;SDS011;6627;50.920;12.050;2022-08-19T00:45:52;57.60;;;39.60;;
13122;SDS011;6627;50.920;12.050;2022-08-19T00:48:21;57.33;;;39.40;;
13122;SDS011;6627;50.920;12.050;2022-08-19T00:50:50;52.73;;;39.03;;
13122;SDS011;6627;50.920;12.050;2022-08-19T00:53:22;47.90;;;36.70;;
13122;SDS011;6627;50.920;12.050;2022-08-19T00:55:55;46.47;;;35.03;;
13122;SDS011;6627;50.920;12.050;2022-08-19T00:58:29;43.67;;;34.23;;
13122;SDS011;6627;50.920;12.050;2022-08-19T01:01:00;44.57;;;35.60;;
13122;SDS011;6627;50.920;12.050;2022-08-19T01:03:30;37.83;;;32.87;;
13122;SDS011;6627;50.920;12.050;2022-08-19T01:05:57;41.47;;;33.20;;
13122;SDS011;6627;50.920;12.050;2022-08-19T01:08:25;38.00;;;32.47;;
13122;SDS011;6627;50.920;12.050;2022-08-19T01:10:53;42.47;;;33.43;;
13122;SDS011;6627;50.920;12.050;2022-08-19T01:13:25;45.63;;;34.37;;
13122;SDS011;6627;50.920;12.050;2022-08-19T01:15:59;44.13;;;35.73;;
13122;SDS011;6627;50.920;12.050;2022-08-19T01:18:35;44.90;;;34.43;;
13122;SDS011;6627;50.920;12.050;2022-08-19T01:21:08;41.10;;;34.70;;
13122;SDS011;6627;50.920;12.050;2022-08-19T01:23:45;51.90;;;38.07;;
13122;SDS011;6627;50.920;12.050;2022-08-19T01:26:13;49.17;;;38.47;;
13122;SDS011;6627;50.920;12.050;2022-08-19T01:28:44;49.90;;;39.10;;
13122;SDS011;6627;50.920;12.050;2022-08-19T01:31:16;51.40;;;40.67;;
13122;SDS011;6627;50.920;12.050;2022-08-19T01:33:46;51.83;;;38.80;;
13122;SDS011;6627;50.920;12.050;2022-08-19T01:36:15;57.37;;;40.17;;
13122;SDS011;6627;50.920;12.050;2022-08-19T01:38:52;53.27;;;40.57;;
13122;SDS011;6627;50.920;12.050;2022-08-19T01:41:20;57.63;;;41.67;;
13122;SDS011;6627;50.920;12.050;2022-08-19T01:43:49;59.60;;;41.70;;
13122;SDS011;6627;50.920;12.050;2022-08-19T01:46:17;52.87;;;40.57;;
13122;SDS011;6627;50.920;12.050;2022-08-19T01:48:45;56.63;;;41.17;;
13122;SDS011;6627;50.920;12.050;2022-08-19T01:51:12;53.87;;;40.97;;
13122;SDS011;6627;50.920;12.050;2022-08-19T01:53:40;50.37;;;40.43;;
13122;SDS011;6627;50.920;12.050;2022-08-19T01:56:09;49.97;;;39.43;;
13122;SDS011;6627;50.920;12.050;2022-08-19T01:58:38;50.33;;;40.27;;
13122;SDS011;6627;50.920;12.050;2022-08-19T02:01:12;50.87;;;40.37;;
13122;SDS011;6627;50.920;12.050;2022-08-19T02:03:39;49.70;;;38.83;;
13122;SDS011;6627;50.920;12.050;2022-08-19T02:06:07;46.13;;;37.60;;
13122;SDS011;6627;50.920;12.050;2022-08-19T02:08:35;42.60;;;36.73;;
13122;SDS011;6627;50.920;12.050;2022-08-19T02:11:05;43.90;;;36.90;;
13122;SDS011;6627;50.920;12.050;2022-08-19T02:13:35;41.83;;;36.37;;
13122;SDS011;6627;50.920;12.050;2022-08-19T02:16:02;43.13;;;38.23;;
13122;SDS011;6627;50.920;12.050;2022-08-19T02:18:29;46.57;;;38.43;;
13122;SDS011;6627;50.920;12.050;2022-08-19T02:20:57;45.40;;;37.33;;
13122;SDS011;6627;50.920;12.050;2022-08-19T02:23:24;49.70;;;39.63;;
13122;SDS011;6627;50.920;12.050;2022-08-19T02:25:52;47.53;;;38.23;;
13122;SDS011;6627;50.920;12.050;2022-08-19T02:28:19;53.13;;;40.63;;
13122;SDS011;6627;50.920;12.050;2022-08-19T02:30:48;47.90;;;39.87;;
13122;SDS011;6627;50.920;12.050;2022-08-19T02:33:15;42.00;;;37.23;;
13122;SDS011;6627;50.920;12.050;2022-08-19T02:35:43;45.07;;;37.73;;
13122;SDS011;6627;50.920;12.050;2022-08-19T02:38:11;42.27;;;37.13;;
13122;SDS011;6627;50.920;12.050;2022-08-19T02:40:52;40.80;;;36.20;;
13122;SDS011;6627;50.920;12.050;2022-08-19T02:43:23;44.27;;;37.27;;
13122;SDS011;6627;50.920;12.050;2022-08-19T02:45:52;42.03;;;37.43;;
13122;SDS011;6627;50.920;12.050;2022-08-19T02:48:20;41.33;;;36.83;;
13122;SDS011;6627;50.920;12.050;2022-08-19T02:50:51;39.03;;;34.57;;
13122;SDS011;6627;50.920;12.050;2022-08-19T02:53:20;40.63;;;35.50;;
13122;SDS011;6627;50.920;12.050;2022-08-19T02:55:49;39.27;;;34.97;;
13122;SDS011;6627;50.920;12.050;2022-08-19T02:58:17;39.17;;;34.80;;
13122;SDS011;6627;50.920;12.050;2022-08-19T03:00:47;40.50;;;36.13;;
13122;SDS011;6627;50.920;12.050;2022-08-19T03:03:18;49.67;;;38.00;;
13122;SDS011;6627;50.920;12.050;2022-08-19T03:05:47;50.07;;;40.10;;
13122;SDS011;6627;50.920;12.050;2022-08-19T03:08:14;53.13;;;41.67;;
13122;SDS011;6627;50.920;12.050;2022-08-19T03:10:42;67.93;;;44.80;;
13122;SDS011;6627;50.920;12.050;2022-08-19T03:13:12;103.50;;;46.03;;
13122;SDS011;6627;50.920;12.050;2022-08-19T03:15:41;69.60;;;44.30;;
13122;SDS011;6627;50.920;12.050;2022-08-19T03:18:11;63.00;;;44.43;;
13122;SDS011;6627;50.920;12.050;2022-08-19T03:20:42;80.27;;;47.77;;
13122;SDS011;6627;50.920;12.050;2022-08-19T03:23:10;77.03;;;47.30;;
13122;SDS011;6627;50.920;12.050;2022-08-19T03:25:39;71.50;;;49.00;;
13122;SDS011;6627;50.920;12.050;2022-08-19T03:28:09;73.83;;;49.00;;
13122;SDS011;6627;50.920;12.050;2022-08-19T03:30:38;69.00;;;46.73;;
13122;SDS011;6627;50.920;12.050;2022-08-19T03:33:07;64.07;;;46.13;;
13122;SDS011;6627;50.920;12.050;2022-08-19T03:35:35;63.60;;;47.63;;
13122;SDS011;6627;50.920;12.050;2022-08-19T03:38:04;59.47;;;45.73;;
13122;SDS011;6627;50.920;12.050;2022-08-19T03:40:32;57.73;;;44.67;;
13122;SDS011;6627;50.920;12.050;2022-08-19T03:43:03;60.00;;;44.73;;
13122;SDS011;6627;50.920;12.050;2022-08-19T03:45:31;60.90;;;44.43;;
13122;SDS011;6627;50.920;12.050;2022-08-19T03:47:58;56.10;;;43.63;;
13122;SDS011;6627;50.920;12.050;2022-08-19T03:50:26;58.13;;;43.70;;
13122;SDS011;6627;50.920;12.050;2022-08-19T03:52:53;54.10;;;43.13;;
13122;SDS011;6627;50.920;12.050;2022-08-19T03:55:22;61.83;;;46.33;;
13122;SDS011;6627;50.920;12.050;2022-08-19T03:57:49;59.17;;;45.87;;
13122;SDS011;6627;50.920;12.050;2022-08-19T04:00:16;60.13;;;47.93;;
13122;SDS011;6627;50.920;12.050;2022-08-19T04:02:44;58.47;;;46.17;;
13122;SDS011;6627;50.920;12.050;2022-08-19T04:05:11;55.20;;;44.50;;
13122;SDS011;6627;50.920;12.050;2022-08-19T04:07:40;55.77;;;44.93;;
13122;SDS011;6627;50.920;12.050;2022-08-19T04:10:07;53.03;;;44.50;;
13122;SDS011;6627;50.920;12.050;2022-08-19T04:12:36;56.20;;;44.27;;
13122;SDS011;6627;50.920;12.050;2022-08-19T04:15:05;56.03;;;44.90;;
13122;SDS011;6627;50.920;12.050;2022-08-19T04:17:33;65.33;;;46.63;;
13122;SDS011;6627;50.920;12.050;2022-08-19T04:20:00;67.27;;;48.33;;
13122;SDS011;6627;50.920;12.050;2022-08-19T04:22:28;69.67;;;51.00;;
13122;SDS011;6627;50.920;12.050;2022-08-19T04:24:55;67.63;;;49.80;;
13122;SDS011;6627;50.920;12.050;2022-08-19T04:27:22;64.20;;;50.93;;
13122;SDS011;6627;50.920;12.050;2022-08-19T04:29:51;74.70;;;52.10;;
13122;SDS011;6627;50.920;12.050;2022-08-19T04:32:19;73.30;;;52.17;;
13122;SDS011;6627;50.920;12.050;2022-08-19T04:34:48;69.83;;;53.83;;
13122;SDS011;6627;50.920;12.050;2022-08-19T04:37:15;71.33;;;53.27;;
13122;SDS011;6627;50.920;12.050;2022-08-19T04:39:42;74.03;;;53.33;;
13122;SDS011;6627;50.920;12.050;2022-08-19T04:42:29;71.97;;;53.67;;
13122;SDS011;6627;50.920;12.050;2022-08-19T04:45:08;69.00;;;51.17;;
13122;SDS011;6627;50.920;12.050;2022-08-19T04:47:37;65.47;;;50.80;;
13122;SDS011;6627;50.920;12.050;2022-08-19T04:50:07;69.30;;;51.47;;
13122;SDS011;6627;50.920;12.050;2022-08-19T04:52:36;70.80;;;53.80;;
13122;SDS011;6627;50.920;12.050;2022-08-19T04:55:07;60.57;;;48.67;;
13122;SDS011;6627;50.920;12.050;2022-08-19T04:57:35;60.00;;;48.63;;
13122;SDS011;6627;50.920;12.050;2022-08-19T05:00:08;65.10;;;50.67;;
13122;SDS011;6627;50.920;12.050;2022-08-19T05:02:37;59.40;;;47.33;;
13122;SDS011;6627;50.920;12.050;2022-08-19T05:05:05;63.57;;;48.47;;
13122;SDS011;6627;50.920;12.050;2022-08-19T05:07:33;59.50;;;48.30;;
13122;SDS011;6627;50.920;12.050;2022-08-19T05:10:02;60.00;;;47.13;;
13122;SDS011;6627;50.920;12.050;2022-08-19T05:12:31;59.77;;;46.87;;
13122;SDS011;6627;50.920;12.050;2022-08-19T05:14:59;57.83;;;48.20;;
13122;SDS011;6627;50.920;12.050;2022-08-19T05:17:28;68.80;;;50.30;;
13122;SDS011;6627;50.920;12.050;2022-08-19T05:19:56;67.60;;;50.87;;
13122;SDS011;6627;50.920;12.050;2022-08-19T05:22:41;71.97;;;52.37;;
13122;SDS011;6627;50.920;12.050;2022-08-19T05:25:11;74.20;;;53.77;;
13122;SDS011;6627;50.920;12.050;2022-08-19T05:27:44;71.63;;;53.30;;
13122;SDS011;6627;50.920;12.050;2022-08-19T05:30:11;73.50;;;54.27;;
13122;SDS011;6627;50.920;12.050;2022-08-19T05:32:40;72.33;;;52.83;;
13122;SDS011;6627;50.920;12.050;2022-08-19T05:35:08;75.00;;;54.63;;
13122;SDS011;6627;50.920;12.050;2022-08-19T05:37:36;69.10;;;54.20;;
13122;SDS011;6627;50.920;12.050;2022-08-19T05:40:05;70.53;;;54.57;;
13122;SDS011;6627;50.920;12.050;2022-08-19T05:42:34;73.37;;;54.83;;
13122;SDS011;6627;50.920;12.050;2022-08-19T05:45:01;73.10;;;54.97;;
13122;SDS011;6627;50.920;12.050;2022-08-19T05:47:29;77.87;;;58.10;;
13122;SDS011;6627;50.920;12.050;2022-08-19T05:49:58;78.13;;;56.03;;
13122;SDS011;6627;50.920;12.050;2022-08-19T05:52:27;79.17;;;56.80;;
13122;SDS011;6627;50.920;12.050;2022-08-19T05:54:54;79.23;;;56.07;;
13122;SDS011;6627;50.920;12.050;2022-08-19T05:57:21;76.00;;;55.97;;
13122;SDS011;6627;50.920;12.050;2022-08-19T05:59:50;77.20;;;56.83;;
13122;SDS011;6627;50.920;12.050;2022-08-19T06:02:19;72.67;;;54.20;;
13122;SDS011;6627;50.920;12.050;2022-08-19T06:04:46;72.70;;;53.47;;
13122;SDS011;6627;50.920;12.050;2022-08-19T06:07:14;74.40;;;55.13;;
13122;SDS011;6627;50.920;12.050;2022-08-19T06:09:42;76.07;;;54.70;;
13122;SDS011;6627;50.920;12.050;2022-08-19T06:12:09;73.23;;;54.43;;
13122;SDS011;6627;50.920;12.050;2022-08-19T06:14:36;74.77;;;54.70;;
13122;SDS011;6627;50.920;12.050;2022-08-19T06:17:03;70.20;;;53.33;;
13122;SDS011;6627;50.920;12.050;2022-08-19T06:19:31;87.73;;;56.93;;
13122;SDS011;6627;50.920;12.050;2022-08-19T06:21:58;81.47;;;56.97;;
13122;SDS011;6627;50.920;12.050;2022-08-19T06:24:28;86.77;;;57.90;;
13122;SDS011;6627;50.920;12.050;2022-08-19T06:26:57;74.53;;;54.23;;
13122;SDS011;6627;50.920;12.050;2022-08-19T06:29:26;88.50;;;56.27;;
13122;SDS011;6627;50.920;12.050;2022-08-19T06:31:55;82.40;;;54.30;;
13122;SDS011;6627;50.920;12.050;2022-08-19T06:34:25;84.13;;;56.90;;
13122;SDS011;6627;50.920;12.050;2022-08-19T06:36:55;83.67;;;57.00;;
13122;SDS011;6627;50.920;12.050;2022-08-19T06:39:27;82.63;;;57.83;;
13122;SDS011;6627;50.920;12.050;2022-08-19T06:41:59;83.33;;;57.67;;
13122;SDS011;6627;50.920;12.050;2022-08-19T06:44:32;87.07;;;57.87;;
13122;SDS011;6627;50.920;12.050;2022-08-19T06:47:02;89.80;;;58.67;;
13122;SDS011;6627;50.920;12.050;2022-08-19T06:49:33;90.60;;;59.57;;
13122;SDS011;6627;50.920;12.050;2022-08-19T06:52:03;88.00;;;59.43;;
13122;SDS011;6627;50.920;12.050;2022-08-19T06:54:33;91.23;;;60.87;;
13122;SDS011;6627;50.920;12.050;2022-08-19T06:57:02;96.03;;;61.83;;
13122;SDS011;6627;50.920;12.050;2022-08-19T06:59:30;88.37;;;58.40;;
13122;SDS011;6627;50.920;12.050;2022-08-19T07:01:59;83.20;;;55.97;;
13122;SDS011;6627;50.920;12.050;2022-08-19T07:04:31;82.70;;;55.20;;
13122;SDS011;6627;50.920;12.050;2022-08-19T07:07:02;79.53;;;54.63;;
13122;SDS011;6627;50.920;12.050;2022-08-19T07:09:36;76.27;;;55.40;;
13122;SDS011;6627;50.920;12.050;2022-08-19T07:12:07;73.43;;;52.13;;
13122;SDS011;6627;50.920;12.050;2022-08-19T07:14:38;76.53;;;54.80;;
13122;SDS011;6627;50.920;12.050;2022-08-19T07:17:07;78.10;;;51.87;;
13122;SDS011;6627;50.920;12.050;2022-08-19T07:19:37;70.60;;;50.23;;
13122;SDS011;6627;50.920;12.050;2022-08-19T07:22:06;66.17;;;51.20;;
13122;SDS011;6627;50.920;12.050;2022-08-19T07:24:37;70.20;;;51.03;;
13122;SDS011;6627;50.920;12.050;2022-08-19T07:27:05;65.17;;;47.70;;
13122;SDS011;6627;50.920;12.050;2022-08-19T07:29:35;65.37;;;48.47;;
13122;SDS011;6627;50.920;12.050;2022-08-19T07:32:03;66.03;;;49.93;;
13122;SDS011;6627;50.920;12.050;2022-08-19T07:34:32;68.07;;;48.27;;
13122;SDS011;6627;50.920;12.050;2022-08-19T07:37:02;69.47;;;49.13;;
13122;SDS011;6627;50.920;12.050;2022-08-19T07:39:31;61.60;;;48.63;;
13122;SDS011;6627;50.920;12.050;2022-08-19T07:42:05;67.07;;;47.87;;
13122;SDS011;6627;50.920;12.050;2022-08-19T07:44:36;65.53;;;48.73;;
13122;SDS011;6627;50.920;12.050;2022-08-19T07:47:04;60.13;;;47.47;;
13122;SDS011;6627;50.920;12.050;2022-08-19T07:49:32;61.20;;;46.30;;
13122;SDS011;6627;50.920;12.050;2022-08-19T07:52:00;67.20;;;47.70;;
13122;SDS011;6627;50.920;12.050;2022-08-19T07:54:35;63.03;;;46.73;;
13122;SDS011;6627;50.920;12.050;2022-08-19T07:57:07;61.47;;;46.80;;
13122;SDS011;6627;50.920;12.050;2022-08-19T07:59:35;64.67;;;47.37;;
13122;SDS011;6627;50.920;12.050;2022-08-19T08:02:02;66.17;;;46.37;;
13122;SDS011;6627;50.920;12.050;2022-08-19T08:04:30;60.10;;;45.23;;
13122;SDS011;6627;50.920;12.050;2022-08-19T08:07:15;66.77;;;48.83;;
13122;SDS011;6627;50.920;12.050;2022-08-19T08:10:00;62.20;;;45.30;;
13122;SDS011;6627;50.920;12.050;2022-08-19T08:12:32;66.73;;;48.13;;
13122;SDS011;6627;50.920;12.050;2022-08-19T08:15:07;63.20;;;47.73;;
13122;SDS011;6627;50.920;12.050;2022-08-19T08:17:42;66.87;;;49.37;;
13122;SDS011;6627;50.920;12.050;2022-08-19T08:20:10;63.07;;;48.60;;
13122;SDS011;6627;50.920;12.050;2022-08-19T08:22:42;68.77;;;50.23;;
13122;SDS011;6627;50.920;12.050;2022-08-19T08:25:27;65.77;;;48.03;;
13122;SDS011;6627;50.920;12.050;2022-08-19T08:27:56;67.63;;;49.37;;
13122;SDS011;6627;50.920;12.050;2022-08-19T08:30:26;60.30;;;47.40;;
13122;SDS011;6627;50.920;12.050;2022-08-19T08:32:55;59.40;;;46.63;;
13122;SDS011;6627;50.920;12.050;2022-08-19T08:35:23;58.10;;;45.07;;
13122;SDS011;6627;50.920;12.050;2022-08-19T08:37:51;55.13;;;45.23;;
13122;SDS011;6627;50.920;12.050;2022-08-19T08:40:23;62.90;;;48.60;;
13122;SDS011;6627;50.920;12.050;2022-08-19T08:43:00;65.87;;;46.77;;
13122;SDS011;6627;50.920;12.050;2022-08-19T08:45:33;60.23;;;48.50;;
13122;SDS011;6627;50.920;12.050;2022-08-19T08:48:13;60.23;;;47.80;;
13122;SDS011;6627;50.920;12.050;2022-08-19T08:50:49;65.97;;;48.73;;
13122;SDS011;6627;50.920;12.050;2022-08-19T08:53:21;63.30;;;47.30;;
13122;SDS011;6627;50.920;12.050;2022-08-19T08:55:50;62.13;;;48.20;;
13122;SDS011;6627;50.920;12.050;2022-08-19T08:58:26;60.67;;;49.63;;
13122;SDS011;6627;50.920;12.050;2022-08-19T09:01:08;61.20;;;48.53;;
13122;SDS011;6627;50.920;12.050;2022-08-19T09:03:37;61.17;;;48.83;;
13122;SDS011;6627;50.920;12.050;2022-08-19T09:06:11;59.83;;;47.37;;
13122;SDS011;6627;50.920;12.050;2022-08-19T09:08:54;62.87;;;49.93;;
13122;SDS011;6627;50.920;12.050;2022-08-19T09:11:38;63.83;;;48.27;;
13122;SDS011;6627;50.920;12.050;2022-08-19T09:14:23;61.20;;;49.23;;
13122;SDS011;6627;50.920;12.050;2022-08-19T09:17:03;59.33;;;47.60;;
13122;SDS011;6627;50.920;12.050;2022-08-19T09:19:33;56.53;;;48.03;;
13122;SDS011;6627;50.920;12.050;2022-08-19T09:22:01;59.27;;;46.20;;
13122;SDS011;6627;50.920;12.050;2022-08-19T09:24:30;59.40;;;46.40;;
13122;SDS011;6627;50.920;12.050;2022-08-19T09:26:57;53.27;;;44.47;;
13122;SDS011;6627;50.920;12.050;2022-08-19T09:29:26;50.07;;;39.83;;
13122;SDS011;6627;50.920;12.050;2022-08-19T09:31:55;45.90;;;38.90;;
13122;SDS011;6627;50.920;12.050;2022-08-19T09:34:22;41.00;;;36.57;;
13122;SDS011;6627;50.920;12.050;2022-08-19T09:36:49;40.63;;;34.63;;
13122;SDS011;6627;50.920;12.050;2022-08-19T09:39:18;40.60;;;35.83;;
13122;SDS011;6627;50.920;12.050;2022-08-19T09:41:45;37.50;;;33.20;;
13122;SDS011;6627;50.920;12.050;2022-08-19T09:44:15;35.93;;;31.93;;
13122;SDS011;6627;50.920;12.050;2022-08-19T09:46:43;37.53;;;32.60;;
13122;SDS011;6627;50.920;12.050;2022-08-19T09:49:12;35.63;;;29.90;;
13122;SDS011;6627;50.920;12.050;2022-08-19T09:51:39;34.90;;;30.90;;
13122;SDS011;6627;50.920;12.050;2022-08-19T09:54:07;40.33;;;29.93;;
13122;SDS011;6627;50.920;12.050;2022-08-19T09:56:35;32.23;;;28.83;;
13122;SDS011;6627;50.920;12.050;2022-08-19T09:59:02;33.13;;;27.93;;
13122;SDS011;6627;50.920;12.050;2022-08-19T10:01:30;30.20;;;26.53;;
13122;SDS011;6627;50.920;12.050;2022-08-19T10:04:00;28.17;;;25.23;;
13122;SDS011;6627;50.920;12.050;2022-08-19T10:06:29;26.83;;;24.07;;
13122;SDS011;6627;50.920;12.050;2022-08-19T10:08:58;22.83;;;20.53;;
13122;SDS011;6627;50.920;12.050;2022-08-19T10:11:26;23.83;;;21.47;;
13122;SDS011;6627;50.920;12.050;2022-08-19T10:13:54;22.40;;;20.10;;
13122;SDS011;6627;50.920;12.050;2022-08-19T10:16:22;21.70;;;18.77;;
13122;SDS011;6627;50.920;12.050;2022-08-19T10:18:51;20.27;;;18.27;;
13122;SDS011;6627;50.920;12.050;2022-08-19T10:21:21;20.80;;;17.30;;
13122;SDS011;6627;50.920;12.050;2022-08-19T10:23:53;20.40;;;18.33;;
13122;SDS011;6627;50.920;12.050;2022-08-19T10:26:24;22.03;;;17.73;;
13122;SDS011;6627;50.920;12.050;2022-08-19T10:28:54;20.63;;;18.53;;
13122;SDS011;6627;50.920;12.050;2022-08-19T10:31:24;19.33;;;17.30;;
13122;SDS011;6627;50.920;12.050;2022-08-19T10:33:55;19.37;;;17.20;;
13122;SDS011;6627;50.920;12.050;2022-08-19T10:36:26;22.27;;;19.80;;
13122;SDS011;6627;50.920;12.050;2022-08-19T10:38:57;20.93;;;18.70;;
13122;SDS011;6627;50.920;12.050;2022-08-19T10:41:29;18.63;;;16.20;;
13122;SDS011;6627;50.920;12.050;2022-08-19T10:44:01;17.13;;;15.43;;
13122;SDS011;6627;50.920;12.050;2022-08-19T10:46:33;17.17;;;15.37;;
13122;SDS011;6627;50.920;12.050;2022-08-19T10:49:07;15.67;;;14.00;;
13122;SDS011;6627;50.920;12.050;2022-08-19T10:51:38;14.73;;;13.23;;
13122;SDS011;6627;50.920;12.050;2022-08-19T10:54:24;14.10;;;12.77;;
13122;SDS011;6627;50.920;12.050;2022-08-19T10:57:12;13.93;;;12.53;;
13122;SDS011;6627;50.920;12.050;2022-08-19T10:59:40;14.07;;;12.63;;
13122;SDS011;6627;50.920;12.050;2022-08-19T11:02:07;14.67;;;12.43;;
13122;SDS011;6627;50.920;12.050;2022-08-19T11:04:37;13.17;;;11.97;;
13122;SDS011;6627;50.920;12.050;2022-08-19T11:07:07;15.80;;;12.37;;
13122;SDS011;6627;50.920;12.050;2022-08-19T11:09:39;12.83;;;10.97;;
13122;SDS011;6627;50.920;12.050;2022-08-19T11:12:08;14.70;;;11.83;;
13122;SDS011;6627;50.920;12.050;2022-08-19T11:14:38;13.50;;;11.30;;
13122;SDS011;6627;50.920;12.050;2022-08-19T11:17:05;11.27;;;10.27;;
13122;SDS011;6627;50.920;12.050;2022-08-19T11:19:33;11.27;;;10.13;;
13122;SDS011;6627;50.920;12.050;2022-08-19T11:22:01;11.53;;;10.33;;
13122;SDS011;6627;50.920;12.050;2022-08-19T11:24:30;11.93;;;10.60;;
13122;SDS011;6627;50.920;12.050;2022-08-19T11:27:00;13.07;;;10.67;;
13122;SDS011;6627;50.920;12.050;2022-08-19T11:29:31;11.23;;;10.13;;
13122;SDS011;6627;50.920;12.050;2022-08-19T11:32:00;10.77;;;9.77;;
13122;SDS011;6627;50.920;12.050;2022-08-19T11:34:30;10.90;;;9.90;;
13122;SDS011;6627;50.920;12.050;2022-08-19T11:36:58;10.47;;;9.47;;
13122;SDS011;6627;50.920;12.050;2022-08-19T11:39:26;11.27;;;10.20;;
13122;SDS011;6627;50.920;12.050;2022-08-19T11:41:58;11.10;;;10.17;;
13122;SDS011;6627;50.920;12.050;2022-08-19T11:44:27;11.37;;;10.17;;
13122;SDS011;6627;50.920;12.050;2022-08-19T11:46:55;11.87;;;10.60;;
13122;SDS011;6627;50.920;12.050;2022-08-19T11:49:23;14.00;;;11.50;;
13122;SDS011;6627;50.920;12.050;2022-08-19T11:51:50;12.07;;;10.83;;
13122;SDS011;6627;50.920;12.050;2022-08-19T11:54:17;13.87;;;11.23;;
13122;SDS011;6627;50.920;12.050;2022-08-19T11:56:45;10.60;;;9.53;;
13122;SDS011;6627;50.920;12.050;2022-08-19T11:59:14;12.47;;;11.23;;
13122;SDS011;6627;50.920;12.050;2022-08-19T12:01:41;12.33;;;10.07;;
13122;SDS011;6627;50.920;12.050;2022-08-19T12:04:09;10.93;;;9.37;;
13122;SDS011;6627;50.920;12.050;2022-08-19T12:06:37;11.43;;;9.30;;
13122;SDS011;6627;50.920;12.050;2022-08-19T12:09:07;10.43;;;9.53;;
13122;SDS011;6627;50.920;12.050;2022-08-19T12:11:37;10.37;;;9.37;;
13122;SDS011;6627;50.920;12.050;2022-08-19T12:14:08;9.37;;;8.47;;
13122;SDS011;6627;50.920;12.050;2022-08-19T12:16:39;7.70;;;7.00;;
13122;SDS011;6627;50.920;12.050;2022-08-19T12:19:07;7.30;;;6.57;;
13122;SDS011;6627;50.920;12.050;2022-08-19T12:21:34;7.43;;;6.77;;
13122;SDS011;6627;50.920;12.050;2022-08-19T12:24:03;7.57;;;6.10;;
13122;SDS011;6627;50.920;12.050;2022-08-19T12:26:33;7.93;;;7.10;;
13122;SDS011;6627;50.920;12.050;2022-08-19T12:29:01;7.73;;;6.93;;
13122;SDS011;6627;50.920;12.050;2022-08-19T12:31:31;7.80;;;7.10;;
13122;SDS011;6627;50.920;12.050;2022-08-19T12:33:58;7.50;;;6.80;;
13122;SDS011;6627;50.920;12.050;2022-08-19T12:36:26;8.70;;;7.07;;
13122;SDS011;6627;50.920;12.050;2022-08-19T12:38:54;7.03;;;6.37;;
13122;SDS011;6627;50.920;12.050;2022-08-19T12:41:24;6.83;;;6.10;;
13122;SDS011;6627;50.920;12.050;2022-08-19T12:43:52;6.70;;;6.10;;
13122;SDS011;6627;50.920;12.050;2022-08-19T12:46:19;7.77;;;6.00;;
13122;SDS011;6627;50.920;12.050;2022-08-19T12:48:48;6.13;;;5.60;;
13122;SDS011;6627;50.920;12.050;2022-08-19T12:51:16;6.53;;;5.77;;
13122;SDS011;6627;50.920;12.050;2022-08-19T12:53:45;10.53;;;6.00;;
13122;SDS011;6627;50.920;12.050;2022-08-19T12:56:13;6.47;;;5.87;;
13122;SDS011;6627;50.920;12.050;2022-08-19T12:58:41;6.37;;;5.77;;
13122;SDS011;6627;50.920;12.050;2022-08-19T13:01:10;7.10;;;5.87;;
13122;SDS011;6627;50.920;12.050;2022-08-19T13:03:39;7.33;;;5.80;;
13122;SDS011;6627;50.920;12.050;2022-08-19T13:06:08;7.23;;;6.63;;
13122;SDS011;6627;50.920;12.050;2022-08-19T13:08:36;7.00;;;6.23;;
13122;SDS011;6627;50.920;12.050;2022-08-19T13:11:08;6.57;;;5.77;;
13122;SDS011;6627;50.920;12.050;2022-08-19T13:13:38;7.57;;;6.80;;
13122;SDS011;6627;50.920;12.050;2022-08-19T13:16:08;6.50;;;5.90;;
13122;SDS011;6627;50.920;12.050;2022-08-19T13:18:36;7.07;;;6.47;;
13122;SDS011;6627;50.920;12.050;2022-08-19T13:21:06;6.47;;;5.77;;
13122;SDS011;6627;50.920;12.050;2022-08-19T13:23:39;6.53;;;5.93;;
13122;SDS011;6627;50.920;12.050;2022-08-19T13:26:08;8.10;;;5.93;;
13122;SDS011;6627;50.920;12.050;2022-08-19T13:28:38;7.17;;;6.47;;
13122;SDS011;6627;50.920;12.050;2022-08-19T13:31:27;7.47;;;6.77;;
13122;SDS011;6627;50.920;12.050;2022-08-19T13:34:16;7.30;;;6.50;;
13122;SDS011;6627;50.920;12.050;2022-08-19T13:36:47;8.60;;;7.70;;
13122;SDS011;6627;50.920;12.050;2022-08-19T13:39:15;8.67;;;7.87;;
13122;SDS011;6627;50.920;12.050;2022-08-19T13:41:43;9.30;;;8.30;;
13122;SDS011;6627;50.920;12.050;2022-08-19T13:44:13;9.27;;;8.23;;
13122;SDS011;6627;50.920;12.050;2022-08-19T13:46:43;9.07;;;8.17;;
13122;SDS011;6627;50.920;12.050;2022-08-19T13:49:11;10.77;;;7.93;;
13122;SDS011;6627;50.920;12.050;2022-08-19T13:51:40;9.33;;;7.43;;
13122;SDS011;6627;50.920;12.050;2022-08-19T13:54:10;7.87;;;7.10;;
13122;SDS011;6627;50.920;12.050;2022-08-19T13:56:39;8.67;;;7.80;;
13122;SDS011;6627;50.920;12.050;2022-08-19T13:59:08;9.13;;;7.87;;
13122;SDS011;6627;50.920;12.050;2022-08-19T14:01:36;8.43;;;7.60;;
13122;SDS011;6627;50.920;12.050;2022-08-19T14:04:04;9.10;;;8.20;;
13122;SDS011;6627;50.920;12.050;2022-08-19T14:06:32;9.60;;;8.70;;
13122;SDS011;6627;50.920;12.050;2022-08-19T14:08:59;9.03;;;8.23;;
13122;SDS011;6627;50.920;12.050;2022-08-19T14:11:29;11.00;;;8.20;;
13122;SDS011;6627;50.920;12.050;2022-08-19T14:13:56;9.83;;;7.50;;
13122;SDS011;6627;50.920;12.050;2022-08-19T14:16:23;6.90;;;6.30;;
13122;SDS011;6627;50.920;12.050;2022-08-19T14:18:52;8.73;;;6.57;;
13122;SDS011;6627;50.920;12.050;2022-08-19T14:21:21;7.33;;;6.40;;
13122;SDS011;6627;50.920;12.050;2022-08-19T14:23:50;8.33;;;6.50;;
13122;SDS011;6627;50.920;12.050;2022-08-19T14:26:19;7.87;;;6.87;;
13122;SDS011;6627;50.920;12.050;2022-08-19T14:28:49;8.87;;;6.67;;
13122;SDS011;6627;50.920;12.050;2022-08-19T14:31:18;9.23;;;7.23;;
13122;SDS011;6627;50.920;12.050;2022-08-19T14:33:46;7.27;;;6.67;;
13122;SDS011;6627;50.920;12.050;2022-08-19T14:36:14;9.07;;;7.40;;
13122;SDS011;6627;50.920;12.050;2022-08-19T14:38:41;10.30;;;7.10;;
13122;SDS011;6627;50.920;12.050;2022-08-19T14:41:11;7.70;;;6.90;;